Aniara — SKJC — position and weather

sailwx.info

Track history (hours):
 
Tides and Currents Weather Stations Pressure Air Temp Water Temp Dewpoint Dewpoint Depression Visibility Wind Speed Wind Dir Waves Ship Positions

Aniara

Last reported at 2016-Jun-27 08:33 UTC. Time now 2016-Jun-27 09:34 UTC.
Position N 51°19' E 003°13'.

Length 232 m; draft 8.5 m.

Type: Cargo ship. MMSI: 266282000.

Date/timePositionNaut miles runAvg speedWind from/ knotsBaromVisibWave heightAir tempDewpointWater temp
2016-Jun-27 08:33N 51°19' E 003°13'0 0.0
2016-Jun-27 07:33N 51°19' E 003°13'0 0.0
2016-Jun-27 06:30N 51°19' E 003°13'0 0.0
2016-Jun-27 05:33N 51°19' E 003°13'0 0.0
2016-Jun-27 04:33N 51°19' E 003°13'0 0.0
2016-Jun-27 03:33N 51°19' E 003°13'0 0.0
2016-Jun-27 02:33N 51°19' E 003°13'0 0.0
2016-Jun-27 01:30N 51°19' E 003°13'0 0.0
2016-Jun-27 00:33N 51°19' E 003°13'0 0.0
2016-Jun-26 23:33N 51°19' E 003°13'0 0.0
2016-Jun-26 22:27N 51°19' E 003°13'0 0.0
2016-Jun-26 21:33N 51°19' E 003°13'0 0.0
2016-Jun-26 20:33N 51°19' E 003°13'0 0.0
2016-Jun-26 19:33N 51°19' E 003°13'0 0.0
2016-Jun-26 18:33N 51°19' E 003°13'0 0.0
2016-Jun-26 17:33N 51°19' E 003°13'0 0.0
2016-Jun-26 16:33N 51°19' E 003°13'0 0.0
2016-Jun-26 15:33N 51°19' E 003°13'0 0.0
2016-Jun-26 14:30N 51°19' E 003°13'0 0.0
2016-Jun-26 13:33N 51°19' E 003°13'0 0.0
2016-Jun-26 12:33N 51°19' E 003°13'0 0.0
2016-Jun-26 11:33N 51°19' E 003°13'0 0.0
2016-Jun-26 10:33N 51°19' E 003°13'0 0.0
2016-Jun-26 09:33N 51°19' E 003°13'0 0.0
2016-Jun-26 08:27N 51°19' E 003°13'0 0.0
2016-Jun-26 07:27N 51°19' E 003°13'0 0.0
2016-Jun-26 06:26N 51°19' E 003°13'0 0.0
2016-Jun-26 05:33N 51°19' E 003°13'0 0.0
2016-Jun-26 04:29N 51°19' E 003°13'0 0.0
2016-Jun-26 03:33N 51°19' E 003°13'0 0.0
2016-Jun-26 02:33N 51°19' E 003°13'0 0.0
2016-Jun-26 01:32N 51°19' E 003°13'0 0.0
2016-Jun-26 00:32N 51°19' E 003°13'0 0.0
2016-Jun-25 23:32N 51°19' E 003°13'0 0.0
2016-Jun-25 22:29N 51°19' E 003°13'0 0.0
2016-Jun-25 21:32N 51°19' E 003°13'1 1.1
2016-Jun-25 20:33N 51°20' E 003°13'1 0.9
2016-Jun-25 19:33N 51°21' E 003°12'9 9.2
2016-Jun-25 18:33N 51°23' E 002°58'9 8.8
2016-Jun-25 17:34N 51°23' E 002°44'44 8.8
2016-Jun-25 12:33N 52°01' E 003°19'6319.1
2016-Jun-25 09:15N 52°58' E 004°04'4717.3
2016-Jun-25 06:33N 53°32' E 004°58'2019.7
2016-Jun-25 05:34N 53°39' E 005°29'2120.5
2016-Jun-25 04:33N 53°45' E 006°02'2020.3
2016-Jun-25 03:33N 53°51' E 006°35'2019.7
2016-Jun-25 02:33N 53°55' E 007°07'1918.8
2016-Jun-25 01:33N 53°59' E 007°38'1414.3
2016-Jun-25 00:33N 53°51' E 007°59'1615.9
2016-Jun-24 23:33N 53°42' E 008°20'1110.9
2016-Jun-24 22:33N 53°34' E 008°33'1 0.6
2016-Jun-24 21:33N 53°34' E 008°33'0 0.1
2016-Jun-24 20:32N 53°35' E 008°33'0 0.0
2016-Jun-24 19:32N 53°35' E 008°33'0 0.0
2016-Jun-24 18:32N 53°35' E 008°33'0 0.0
2016-Jun-24 17:29N 53°35' E 008°33'0 0.0
2016-Jun-24 16:32N 53°35' E 008°33'0 0.0
2016-Jun-24 15:29N 53°35' E 008°33'0 0.0
2016-Jun-24 14:28N 53°35' E 008°33'0 0.0
2016-Jun-24 13:28N 53°35' E 008°33'0 0.0
2016-Jun-24 12:31N 53°35' E 008°33'0 0.0
2016-Jun-24 11:31N 53°35' E 008°33'0 0.0
2016-Jun-24 10:31N 53°35' E 008°33'0 0.0
2016-Jun-24 09:31N 53°35' E 008°33'0 0.0
2016-Jun-24 08:31N 53°35' E 008°33'0 0.0
2016-Jun-24 07:28N 53°35' E 008°33'0 0.0
2016-Jun-24 04:31N 53°35' E 008°33'0 0.0
2016-Jun-24 03:28N 53°35' E 008°33'0 0.0
2016-Jun-24 02:31N 53°35' E 008°33'0 0.0
2016-Jun-24 01:31N 53°35' E 008°33'0 0.0
2016-Jun-24 00:31N 53°35' E 008°33'0 0.0
2016-Jun-23 23:31N 53°35' E 008°33'0 0.0
2016-Jun-23 22:31N 53°35' E 008°33'0 0.0
2016-Jun-23 21:31N 53°35' E 008°33'0 0.0
2016-Jun-23 20:28N 53°35' E 008°33'0 0.0
2016-Jun-23 19:31N 53°35' E 008°33'0 0.0
2016-Jun-23 18:31N 53°35' E 008°33'0 0.0
2016-Jun-23 17:31N 53°35' E 008°33'0 0.2
2016-Jun-23 16:33N 53°34' E 008°33'1 0.6
2016-Jun-23 15:33N 53°34' E 008°32'1111.1
2016-Jun-23 14:33N 53°42' E 008°19'1313.3
2016-Jun-23 13:33N 53°51' E 008°02'10 9.9
2016-Jun-23 12:33N 53°54' E 007°46'0 0.3
2016-Jun-23 11:31N 53°54' E 007°46'0 0.0
2016-Jun-23 10:31N 53°54' E 007°46'0 0.1
2016-Jun-23 09:31N 53°54' E 007°46'0 0.1
2016-Jun-23 08:31N 53°54' E 007°46'3 2.7
2016-Jun-23 07:33N 53°55' E 007°42'3416.9
2016-Jun-23 05:33N 53°48' E 006°46'1717.2
2016-Jun-23 04:34N 53°44' E 006°17'1717.2
2016-Jun-23 03:34N 53°39' E 005°49'1717.2
2016-Jun-23 02:34N 53°34' E 005°22'1817.7
2016-Jun-23 01:33N 53°27' E 004°54'1716.9
2016-Jun-23 00:32N 53°14' E 004°35'1818.6
2016-Jun-22 23:33N 52°59' E 004°20'1818.0
2016-Jun-22 22:32N 52°44' E 004°02'2017.8
2016-Jun-22 21:26N 52°29' E 003°40'7218.4
2016-Jun-22 17:31N 51°35' E 002°23'1919.6
2016-Jun-22 16:33N 51°19' E 002°06'2019.9
2016-Jun-22 15:33N 51°04' E 001°45'7919.5
2016-Jun-22 11:31N 50°21' E 000°01'11122.3
2016-Jun-22 06:34N 50°09' W 002°50'2120.5
2016-Jun-22 05:34N 50°07' W 003°22'2320.1
2016-Jun-22 04:24N 50°00' W 003°57'1920.1
2016-Jun-22 03:28N 49°55' W 004°25'  
Track history (hours):
 
Tides and Currents Weather Stations Pressure Air Temp Water Temp Dewpoint Dewpoint Depression Visibility Wind Speed Wind Dir Waves Ship Positions

Aniara

Last reported at 2016-Jun-27 08:33 UTC. Time now 2016-Jun-27 09:34 UTC.
Position N 51°19' E 003°13'.

Length 232 m; draft 8.5 m.

Type: Cargo ship. MMSI: 266282000.

Date/timePositionNaut miles runAvg speedWind from/ knotsBaromVisibWave heightAir tempDewpointWater temp
2016-Jun-27 08:33N 51°19' E 003°13'0 0.0
2016-Jun-27 07:33N 51°19' E 003°13'0 0.0
2016-Jun-27 06:30N 51°19' E 003°13'0 0.0
2016-Jun-27 05:33N 51°19' E 003°13'0 0.0
2016-Jun-27 04:33N 51°19' E 003°13'0 0.0
2016-Jun-27 03:33N 51°19' E 003°13'0 0.0
2016-Jun-27 02:33N 51°19' E 003°13'0 0.0
2016-Jun-27 01:30N 51°19' E 003°13'0 0.0
2016-Jun-27 00:33N 51°19' E 003°13'0 0.0
2016-Jun-26 23:33N 51°19' E 003°13'0 0.0
2016-Jun-26 22:27N 51°19' E 003°13'0 0.0
2016-Jun-26 21:33N 51°19' E 003°13'0 0.0
2016-Jun-26 20:33N 51°19' E 003°13'0 0.0
2016-Jun-26 19:33N 51°19' E 003°13'0 0.0
2016-Jun-26 18:33N 51°19' E 003°13'0 0.0
2016-Jun-26 17:33N 51°19' E 003°13'0 0.0
2016-Jun-26 16:33N 51°19' E 003°13'0 0.0
2016-Jun-26 15:33N 51°19' E 003°13'0 0.0
2016-Jun-26 14:30N 51°19' E 003°13'0 0.0
2016-Jun-26 13:33N 51°19' E 003°13'0 0.0
2016-Jun-26 12:33N 51°19' E 003°13'0 0.0
2016-Jun-26 11:33N 51°19' E 003°13'0 0.0
2016-Jun-26 10:33N 51°19' E 003°13'0 0.0
2016-Jun-26 09:33N 51°19' E 003°13'0 0.0
2016-Jun-26 08:27N 51°19' E 003°13'0 0.0
2016-Jun-26 07:27N 51°19' E 003°13'0 0.0
2016-Jun-26 06:26N 51°19' E 003°13'0 0.0
2016-Jun-26 05:33N 51°19' E 003°13'0 0.0
2016-Jun-26 04:29N 51°19' E 003°13'0 0.0
2016-Jun-26 03:33N 51°19' E 003°13'0 0.0
2016-Jun-26 02:33N 51°19' E 003°13'0 0.0
2016-Jun-26 01:32N 51°19' E 003°13'0 0.0
2016-Jun-26 00:32N 51°19' E 003°13'0 0.0
2016-Jun-25 23:32N 51°19' E 003°13'0 0.0
2016-Jun-25 22:29N 51°19' E 003°13'0 0.0
2016-Jun-25 21:32N 51°19' E 003°13'1 1.1
2016-Jun-25 20:33N 51°20' E 003°13'1 0.9
2016-Jun-25 19:33N 51°21' E 003°12'9 9.2
2016-Jun-25 18:33N 51°23' E 002°58'9 8.8
2016-Jun-25 17:34N 51°23' E 002°44'44 8.8
2016-Jun-25 12:33N 52°01' E 003°19'6319.1
2016-Jun-25 09:15N 52°58' E 004°04'4717.3
2016-Jun-25 06:33N 53°32' E 004°58'2019.7
2016-Jun-25 05:34N 53°39' E 005°29'2120.5
2016-Jun-25 04:33N 53°45' E 006°02'2020.3
2016-Jun-25 03:33N 53°51' E 006°35'2019.7
2016-Jun-25 02:33N 53°55' E 007°07'1918.8
2016-Jun-25 01:33N 53°59' E 007°38'1414.3
2016-Jun-25 00:33N 53°51' E 007°59'1615.9
2016-Jun-24 23:33N 53°42' E 008°20'1110.9
2016-Jun-24 22:33N 53°34' E 008°33'1 0.6
2016-Jun-24 21:33N 53°34' E 008°33'0 0.1
2016-Jun-24 20:32N 53°35' E 008°33'0 0.0
2016-Jun-24 19:32N 53°35' E 008°33'0 0.0
2016-Jun-24 18:32N 53°35' E 008°33'0 0.0
2016-Jun-24 17:29N 53°35' E 008°33'0 0.0
2016-Jun-24 16:32N 53°35' E 008°33'0 0.0
2016-Jun-24 15:29N 53°35' E 008°33'0 0.0
2016-Jun-24 14:28N 53°35' E 008°33'0 0.0
2016-Jun-24 13:28N 53°35' E 008°33'0 0.0
2016-Jun-24 12:31N 53°35' E 008°33'0 0.0
2016-Jun-24 11:31N 53°35' E 008°33'0 0.0
2016-Jun-24 10:31N 53°35' E 008°33'0 0.0
2016-Jun-24 09:31N 53°35' E 008°33'0 0.0
2016-Jun-24 08:31N 53°35' E 008°33'0 0.0
2016-Jun-24 07:28N 53°35' E 008°33'0 0.0
2016-Jun-24 04:31N 53°35' E 008°33'0 0.0
2016-Jun-24 03:28N 53°35' E 008°33'0 0.0
2016-Jun-24 02:31N 53°35' E 008°33'0 0.0
2016-Jun-24 01:31N 53°35' E 008°33'0 0.0
2016-Jun-24 00:31N 53°35' E 008°33'0 0.0
2016-Jun-23 23:31N 53°35' E 008°33'0 0.0
2016-Jun-23 22:31N 53°35' E 008°33'0 0.0
2016-Jun-23 21:31N 53°35' E 008°33'0 0.0
2016-Jun-23 20:28N 53°35' E 008°33'0 0.0
2016-Jun-23 19:31N 53°35' E 008°33'0 0.0
2016-Jun-23 18:31N 53°35' E 008°33'0 0.0
2016-Jun-23 17:31N 53°35' E 008°33'0 0.2
2016-Jun-23 16:33N 53°34' E 008°33'1 0.6
2016-Jun-23 15:33N 53°34' E 008°32'1111.1
2016-Jun-23 14:33N 53°42' E 008°19'1313.3
2016-Jun-23 13:33N 53°51' E 008°02'10 9.9
2016-Jun-23 12:33N 53°54' E 007°46'0 0.3
2016-Jun-23 11:31N 53°54' E 007°46'0 0.0
2016-Jun-23 10:31N 53°54' E 007°46'0 0.1
2016-Jun-23 09:31N 53°54' E 007°46'0 0.1
2016-Jun-23 08:31N 53°54' E 007°46'3 2.7
2016-Jun-23 07:33N 53°55' E 007°42'3416.9
2016-Jun-23 05:33N 53°48' E 006°46'1717.2
2016-Jun-23 04:34N 53°44' E 006°17'1717.2
2016-Jun-23 03:34N 53°39' E 005°49'1717.2
2016-Jun-23 02:34N 53°34' E 005°22'1817.7
2016-Jun-23 01:33N 53°27' E 004°54'1716.9
2016-Jun-23 00:32N 53°14' E 004°35'1818.6
2016-Jun-22 23:33N 52°59' E 004°20'1818.0
2016-Jun-22 22:32N 52°44' E 004°02'2017.8
2016-Jun-22 21:26N 52°29' E 003°40'7218.4
2016-Jun-22 17:31N 51°35' E 002°23'1919.6
2016-Jun-22 16:33N 51°19' E 002°06'2019.9
2016-Jun-22 15:33N 51°04' E 001°45'7919.5
2016-Jun-22 11:31N 50°21' E 000°01'11122.3
2016-Jun-22 06:34N 50°09' W 002°50'2120.5
2016-Jun-22 05:34N 50°07' W 003°22'2320.1
2016-Jun-22 04:24N 50°00' W 003°57'1920.1
2016-Jun-22 03:28N 49°55' W 004°25'  

Dump ship's entire track history